Portada
METAR-TAF:

METAR-TAF

Aeroports :

Kaduna, Nigèria

latitud: 10-36N, longitud: 007-27E, altitud: 645 m

Observació

L'informe es va fer fa 18 hores i 28 minuts, a les 11:00 UTC
Vent 10 kt del Sud-Oest
Temperatura 30°C
Humitat 66%
Pressió 1017 hPa
Visibilitat 10 km o més
Escasses núvols a una alçada de 1100 ft

METAR: DNKA 031100Z 23010KT 9999 FEW011 30/23 Q1017

Hora: 06:28 (05:28 UTC)

Pronòstic

L'informe es va fer fa 18 hores i 28 minuts, a les 11:00 UTC
Pronòstic vàlid del 03 a les 12 UTC al 04 a les 18 UTC
Vent 10 kt del Sud-Oest
Visibilitat 10 km o més
Núvols disperses a una alçada de 1100 ft
Probabilitat 30% :
Temporalment
l' 03 a les 16 UTC al 03 a les 20 UTC
Vent 10 kt del Sud-Oest
Visibilitat 10 km o més
Escasses núvols a una alçada de 2000 ft, Cumulonimbus.
Núvols disperses a una alçada de 1200 ft
tempesta
Temporalment
l' 03 a les 16 UTC al 03 a les 21 UTC
Escasses núvols a una alçada de 2100 ft, Cumulonimbus.
tempesta

TAF: DNKA 031100Z 0312/0418 23010KT 9999 SCT011 PROB30 TEMPO 0316/0320 TS FEW020CB DNMN 031100Z 0312/0418 22010KT 9999 SCT012 TEMPO 0316/0321 TS FEW021CB

Observacions i pronòstics meteorològics de més de 4000 aeroports (METAR i TAF).

Les estacions disponibles són els punts grocs i vermells al mapa.

Posi el ratolí al punt desitjat per veure el nom de l'estació.

Feu clic per veure les observacions i els pronòstics meteorològics.

Per canviar el mapa: feu clic els botons verds amb una creu de color negre per apropar; al botó verd amb un guió per allunyar la imatge; o en les fletxes verdes per a mapes adjacents.


METAR-TAF: